Time;durP1;ratioP1;P1;durP2;ratioP2;P2;SDS_P1;SDS_P2;PMS_P1;PMS_P2;Temp;Humidity;BMP_temperature;BMP_pressure;BME280_temperature;BME280_humidity;BME280_pressure;Samples;Min_cycle;Max_cycle;Signal;HPM_P1;HPM_P2
2022/09/22 00:00:17;;;;;;;4.03;3.03;;;;;;;;;;5094111;28;20131;-66
2022/09/22 00:02:43;;;;;;;5.22;2.60;;;;;;;;;;5092429;28;20051;-66
2022/09/22 00:05:09;;;;;;;5.43;3.15;;;;;;;;;;5093858;28;20048;-66
2022/09/22 00:07:35;;;;;;;6.25;2.30;;;;;;;;;;5057880;28;20075;-66
2022/09/22 00:10:01;;;;;;;5.25;3.15;;;;;;;;;;5093499;28;20044;-66
2022/09/22 00:12:27;;;;;;;4.80;2.95;;;;;;;;;;5075289;28;20044;-65
2022/09/22 00:14:54;;;;;;;6.35;3.10;;;;;;;;;;5092639;28;20075;-66
2022/09/22 00:17:22;;;;;;;5.00;3.53;;;;;;;;;;5074461;28;20052;-66
2022/09/22 00:19:48;;;;;;;4.38;3.10;;;;;;;;;;5093409;28;20396;-67
2022/09/22 00:22:14;;;;;;;4.30;2.88;;;;;;;;;;5088094;28;20040;-67
2022/09/22 00:24:41;;;;;;;4.88;3.10;;;;;;;;;;5084413;28;20040;-67
2022/09/22 00:27:07;;;;;;;4.90;2.08;;;;;;;;;;5074578;28;20070;-66
2022/09/22 00:29:33;;;;;;;5.03;2.75;;;;;;;;;;5074625;28;20074;-67
2022/09/22 00:32:01;;;;;;;4.72;2.60;;;;;;;;;;5093075;28;20547;-67
2022/09/22 00:34:27;;;;;;;5.88;3.30;;;;;;;;;;5091885;28;20059;-66
2022/09/22 00:36:55;;;;;;;4.78;3.10;;;;;;;;;;5093422;28;20054;-66
2022/09/22 00:39:21;;;;;;;5.28;3.22;;;;;;;;;;5091822;28;20052;-66
2022/09/22 00:41:48;;;;;;;6.18;3.08;;;;;;;;;;5092185;28;20044;-66
2022/09/22 00:44:26;;;;;;;7.18;4.10;;;;;;;;;;5090876;28;20047;-66
2022/09/22 00:46:55;;;;;;;5.43;3.30;;;;;;;;;;5073031;28;20135;-66
2022/09/22 00:49:24;;;;;;;5.68;3.30;;;;;;;;;;5091435;28;20554;-66
2022/09/22 00:51:50;;;;;;;5.10;3.28;;;;;;;;;;5092491;28;20114;-66
2022/09/22 00:54:18;;;;;;;5.97;4.45;;;;;;;;;;5088881;28;20044;-66
2022/09/22 00:56:51;;;;;;;6.85;3.78;;;;;;;;;;5091746;28;20511;-67
2022/09/22 00:59:19;;;;;;;6.00;3.17;;;;;;;;;;5073215;28;20097;-66
2022/09/22 01:01:45;;;;;;;5.93;3.70;;;;;;;;;;5092069;28;20445;-66
2022/09/22 01:04:11;;;;;;;6.70;3.50;;;;;;;;;;5137974;22;20619;-66
2022/09/22 01:06:39;;;;;;;4.50;3.03;;;;;;;;;;5091887;28;20087;-66
2022/09/22 01:09:06;;;;;;;4.95;3.10;;;;;;;;;;5092614;28;20096;-66
2022/09/22 01:11:32;;;;;;;5.47;3.13;;;;;;;;;;5073490;28;20045;-66
2022/09/22 01:14:23;;;;;;;5.45;2.92;;;6.80;99.90;;;;;;5074353;28;20053;-66
2022/09/22 01:17:22;;;;;;;3.80;2.60;;;;;;;;;;5080614;22;20161;-66
2022/09/22 01:19:51;;;;;;;4.57;2.38;;;;;;;;;;5085386;22;20117;-66
2022/09/22 01:22:39;;;;;;;4.57;2.88;;;;;;;;;;5078455;22;20135;-67
2022/09/22 01:25:24;;;;;;;3.63;2.60;;;;;;;;;;5051403;28;20516;-66
2022/09/22 01:28:01;;;;;;;6.93;3.10;;;;;;;;;;5059824;28;20040;-66
2022/09/22 01:30:33;;;;;;;4.00;2.50;;;;;;;;;;5065565;28;20166;-65
2022/09/22 01:33:16;;;;;;;5.28;2.80;;;;;;;;;;5058913;28;20098;-66
2022/09/22 01:35:59;;;;;;;6.03;2.67;;;;;;;;;;5051003;28;20489;-66
2022/09/22 01:38:30;;;;;;;5.75;2.88;;;;;;;;;;5034164;28;20060;-66
2022/09/22 01:41:00;;;;;;;5.90;3.08;;;;;;;;;;5042156;28;20400;-66
2022/09/22 01:43:38;;;;;;;6.07;3.00;;;;;;;;;;5055302;28;20072;-65
2022/09/22 01:46:07;;;;;;;4.82;2.88;;;;;;;;;;5054371;28;20299;-66
2022/09/22 01:48:35;;;;;;;7.70;3.70;;;;;;;;;;5051662;28;20064;-67
2022/09/22 01:51:12;;;;;;;6.43;3.83;;;;;;;;;;5059543;28;20052;-66
2022/09/22 01:53:45;;;;;;;5.45;3.03;;;;;;;;;;5035372;28;20059;-66
2022/09/22 01:56:12;;;;;;;5.90;2.53;;;;;;;;;;5052017;28;20512;-66
2022/09/22 01:58:40;;;;;;;5.63;2.58;;;;;;;;;;5033498;28;20067;-66
2022/09/22 02:01:12;;;;;;;4.25;2.63;;;;;;;;;;5054624;28;20048;-67
2022/09/22 02:03:38;;;;;;;5.28;2.80;;;;;;;;;;5053085;28;20048;-66
2022/09/22 02:06:10;;;;;;;6.70;2.53;;;;;;;;;;5054388;28;20065;-66
2022/09/22 02:08:38;;;;;;;4.78;2.67;;;;;;;;;;5051731;28;20152;-66
2022/09/22 02:11:12;;;;;;;5.50;2.50;;;;;;;;;;5060364;28;20047;-66
2022/09/22 02:13:39;;;;;;;4.28;2.20;;;;;;;;;;5050965;28;20532;-65
2022/09/22 02:16:05;;;;;;;5.78;2.97;;;;;;;;;;5038882;28;20103;-66
2022/09/22 02:18:36;;;;;;;6.00;2.92;;;;;;;;;;5031344;28;20502;-66
2022/09/22 02:21:03;;;;;;;4.10;2.50;;;;;;;;;;5039577;28;20088;-66
2022/09/22 02:23:30;;;;;;;4.60;2.60;;;;;;;;;;5051078;28;20056;-66
2022/09/22 02:25:57;;;;;;;8.05;2.63;;;;;;;;;;5051240;28;20048;-66
2022/09/22 02:28:23;;;;;;;6.43;2.85;;;;;;;;;;5051509;28;20045;-66
2022/09/22 02:30:50;;;;;;;3.67;2.10;;;;;;;;;;5048604;28;20045;-66
2022/09/22 02:33:18;;;;;;;3.75;2.10;;;;;;;;;;5050015;28;20083;-66
2022/09/22 02:35:45;;;;;;;4.85;2.35;;;;;;;;;;5047074;28;20041;-66
2022/09/22 02:38:11;;;;;;;6.32;2.42;;;;;;;;;;5051364;28;20099;-66
2022/09/22 02:40:46;;;;;;;3.65;2.35;;;;;;;;;;5049003;28;20056;-66
2022/09/22 02:43:22;;;;;;;5.22;2.22;;;;;;;;;;5051387;28;20049;-66
2022/09/22 02:45:48;;;;;;;7.53;2.92;;;;;;;;;;5050276;28;20045;-66
2022/09/22 02:48:24;;;;;;;5.93;2.50;;;;;;;;;;5050303;28;20037;-67
2022/09/22 02:50:51;;;;;;;4.32;2.40;;;;;;;;;;5049120;28;20095;-67
2022/09/22 02:53:17;;;;;;;7.90;2.78;;;;;;;;;;5051204;28;20132;-67
2022/09/22 02:55:44;;;;;;;5.13;1.98;;;;;;;;;;5047537;28;20040;-67
2022/09/22 02:58:10;;;;;;;8.98;2.40;;;;;;;;;;5033481;28;20045;-67
2022/09/22 03:00:36;;;;;;;6.65;2.92;;;;;;;;;;5032382;28;20041;-67
2022/09/22 03:03:02;;;;;;;6.10;2.72;;;;;;;;;;5051603;28;20052;-66
2022/09/22 03:05:29;;;;;;;3.22;2.08;;;;;;;;;;5048519;28;20053;-66
2022/09/22 03:07:55;;;;;;;4.90;2.10;;;;;;;;;;5054324;28;20053;-66
2022/09/22 03:10:21;;;;;;;5.50;2.80;;;;;;;;;;5050730;28;20047;-66
2022/09/22 03:12:47;;;;;;;3.28;2.10;;;;;;;;;;5054173;28;21058;-66
2022/09/22 03:15:14;;;;;;;4.50;2.10;;;;;;;;;;5051645;28;20184;-66
2022/09/22 03:17:40;;;;;;;4.43;2.00;;;;;;;;;;5053305;28;20053;-66
2022/09/22 03:20:10;;;;;;;3.63;2.38;;;;;;;;;;5052566;28;20056;-67
2022/09/22 03:22:36;;;;;;;4.88;2.05;;;;;;;;;;5053676;28;20413;-66
2022/09/22 03:25:03;;;;;;;4.13;2.15;;;;;;;;;;5059016;28;20041;-66
2022/09/22 03:27:29;;;;;;;3.35;2.08;;;;;;;;;;5022693;28;20056;-66
2022/09/22 03:29:55;;;;;;;3.63;2.03;;;;;;;;;;5053377;28;20045;-65
2022/09/22 03:32:21;;;;;;;3.88;1.98;;;;;;;;;;5055104;28;20493;-66
2022/09/22 03:34:48;;;;;;;6.15;2.38;;;;;;;;;;5052989;28;20060;-66
2022/09/22 03:37:15;;;;;;;5.65;2.35;;;;;;;;;;5061302;28;20502;-66
2022/09/22 03:39:41;;;;;;;4.03;1.95;;;;;;;;;;5041009;28;20497;-66
2022/09/22 03:42:07;;;;;;;6.43;2.63;;;;;;;;;;5051604;28;20055;-66
2022/09/22 03:44:33;;;;;;;3.22;2.10;;;;;;;;;;5070410;28;20040;-66
2022/09/22 03:46:59;;;;;;;3.95;2.22;;;;;;;;;;5039882;28;20055;-67
2022/09/22 03:49:25;;;;;;;6.75;2.80;;;;;;;;;;5053610;28;20144;-66
2022/09/22 03:51:52;;;;;;;5.20;2.40;;;;;;;;;;5053457;28;20045;-66
2022/09/22 03:54:19;;;;;;;4.65;2.85;;;;;;;;;;5043734;28;20110;-66
2022/09/22 03:56:45;;;;;;;5.63;2.47;;;;;;;;;;5059698;28;20493;-66
2022/09/22 03:59:11;;;;;;;5.47;2.03;;;;;;;;;;5053491;28;20671;-66
2022/09/22 04:01:37;;;;;;;6.43;2.33;;;;;;;;;;5058748;28;20385;-65
2022/09/22 04:04:03;;;;;;;4.25;2.05;;;;;;;;;;5045482;28;20056;-65
2022/09/22 04:06:30;;;;;;;4.38;2.80;;;;;;;;;;5066772;28;20124;-66
2022/09/22 04:08:56;;;;;;;6.82;2.58;;;;;;;;;;5069855;28;20097;-66
2022/09/22 04:11:23;;;;;;;4.97;2.70;;;;;;;;;;5053609;28;20110;-66
2022/09/22 04:13:49;;;;;;;9.07;3.10;;;;;;;;;;5058104;28;20048;-66
2022/09/22 04:16:15;;;;;;;10.00;2.88;;;;;;;;;;5059134;28;20048;-67
2022/09/22 04:18:41;;;;;;;3.45;2.17;;;;;;;;;;5034189;28;20502;-66
2022/09/22 04:21:08;;;;;;;4.55;3.03;;;;;;;;;;5060035;28;20056;-66
2022/09/22 04:23:34;;;;;;;8.13;3.00;;;;;;;;;;5086669;28;20051;-66
2022/09/22 04:26:00;;;;;;;8.48;2.90;;;;;;;;;;5082983;28;20056;-66
2022/09/22 04:28:27;;;;;;;5.07;2.88;;;;;;;;;;5072981;28;20040;-65
2022/09/22 04:30:53;;;;;;;4.78;3.08;;;;;;;;;;5071592;28;20111;-66
2022/09/22 04:33:19;;;;;;;6.90;3.58;;;;;;;;;;5085013;28;20144;-65
2022/09/22 04:35:45;;;;;;;5.82;3.35;;;;;;;;;;5091396;22;20056;-64
2022/09/22 04:38:13;;;;;;;6.95;3.50;;;;;;;;;;5091126;22;20139;-65
2022/09/22 04:40:39;;;;;;;4.75;3.25;;;;;;;;;;5092406;28;20052;-66
2022/09/22 04:43:05;;;;;;;8.38;3.45;;;;;;;;;;5093018;28;20264;-66
2022/09/22 04:45:31;;;;;;;6.85;3.40;;;;;;;;;;5092117;28;20127;-66
2022/09/22 04:47:57;;;;;;;4.93;3.28;;;;;;;;;;5075872;28;20051;-66
2022/09/22 04:50:23;;;;;;;8.30;3.63;;;;;;;;;;5092695;28;20149;-66
2022/09/22 04:52:53;;;;;;;8.77;3.75;;;;;;;;;;5091810;28;20044;-65
2022/09/22 04:55:20;;;;;;;6.68;3.03;;;;;;;;;;5112493;22;20462;-66
2022/09/22 04:57:49;;;;;;;7.88;3.20;;;;;;;;;;5090156;28;20056;-66
2022/09/22 05:00:15;;;;;;;13.13;3.70;;;;;;;;;;5090506;28;20052;-66
2022/09/22 05:02:41;;;;;;;7.63;3.83;;;;;;;;;;5090348;28;20043;-66
2022/09/22 05:05:07;;;;;;;8.95;3.67;;;;;;;;;;5091006;28;20462;-65
2022/09/22 05:07:33;;;;;;;5.78;3.10;;;;;;;;;;5091656;28;20039;-66
2022/09/22 05:09:59;;;;;;;6.55;3.78;;;;;;;;;;5092125;28;20050;-66
2022/09/22 05:12:26;;;;;;;9.13;3.85;;;;;;;;;;5092736;28;20044;-65
2022/09/22 05:14:52;;;;;;;7.40;3.72;;;;;;;;;;5090887;28;20484;-65
2022/09/22 05:17:19;;;;;;;9.40;3.85;;;;;;;;;;5092336;28;20141;-65
2022/09/22 05:19:45;;;;;;;8.75;3.92;;;;;;;;;;5089659;28;20055;-66
2022/09/22 05:22:11;;;;;;;13.30;6.75;;;;;;;;;;5092431;28;20048;-66
2022/09/22 05:24:37;;;;;;;5.80;4.05;;;;;;;;;;5076797;28;20130;-66
2022/09/22 05:27:04;;;;;;;8.35;4.60;;;;;;;;;;5072306;28;20148;-66
2022/09/22 05:29:30;;;;;;;6.18;3.65;;;;;;;;;;5086302;28;20054;-66
2022/09/22 05:31:57;;;;;;;9.85;5.40;;;;;;;;;;5090945;28;20146;-65
2022/09/22 05:34:23;;;;;;;9.55;5.38;;;;;;;;;;5092337;28;20123;-66
2022/09/22 05:36:49;;;;;;;11.38;4.70;;;;;;;;;;5091693;28;20055;-65
2022/09/22 05:39:15;;;;;;;7.30;4.75;;;;;;;;;;5091214;28;20047;-65
2022/09/22 05:41:41;;;;;;;10.30;5.18;;;;;;;;;;5090753;28;20039;-65
2022/09/22 05:44:07;;;;;;;10.15;5.43;;;;;;;;;;5091069;28;20093;-66
2022/09/22 05:46:33;;;;;;;10.27;5.22;;;;;;;;;;5091730;28;20079;-65
2022/09/22 05:49:00;;;;;;;13.52;5.70;;;;;;;;;;5089034;28;20043;-65
2022/09/22 05:51:26;;;;;;;8.25;5.22;;;;;;;;;;5089356;28;20402;-65
2022/09/22 05:53:52;;;;;;;9.63;5.57;;;;;;;;;;5078064;28;20044;-65
2022/09/22 05:56:18;;;;;;;8.77;5.28;;;;;;;;;;5091766;28;20064;-65
2022/09/22 05:58:46;;;;;;;11.75;6.10;;;;;;;;;;5089351;28;20439;-66
2022/09/22 06:01:12;;;;;;;10.73;6.05;;;;;;;;;;5091644;28;20048;-65
2022/09/22 06:03:38;;;;;;;15.82;6.68;;;;;;;;;;5090518;28;20050;-65
2022/09/22 06:06:04;;;;;;;8.18;5.80;;;;;;;;;;5088681;28;20071;-66
2022/09/22 06:08:30;;;;;;;8.77;6.25;;;;;;;;;;5077962;28;20044;-65
2022/09/22 06:10:57;;;;;;;9.23;6.22;;;;;;;;;;5088829;28;20039;-65
2022/09/22 06:13:23;;;;;;;11.82;7.03;;;;;;;;;;5090983;28;20098;-65
2022/09/22 06:15:49;;;;;;;12.07;6.72;;;;;;;;;;5091167;28;20448;-65
2022/09/22 06:18:19;;;;;;;14.85;8.05;;;;;;;;;;5071046;28;20052;-65
2022/09/22 06:20:45;;;;;;;16.77;9.30;;;;;;;;;;5090019;28;20414;-65
2022/09/22 06:23:14;;;;;;;17.20;8.75;;;;;;;;;;5091656;28;20047;-66
2022/09/22 06:25:40;;;;;;;13.15;8.93;;;;;;;;;;5090128;28;20063;-65
2022/09/22 06:28:08;;;;;;;15.38;9.93;;;;;;;;;;5090890;28;20040;-65
2022/09/22 06:30:35;;;;;;;18.17;10.30;;;;;;;;;;5088859;28;20048;-65
2022/09/22 06:33:01;;;;;;;15.68;10.02;;;;;;;;;;5083744;28;20051;-65
2022/09/22 06:35:36;;;;;;;15.38;9.88;;;;;;;;;;5083242;28;20086;-65
2022/09/22 06:38:03;;;;;;;16.55;11.35;;;;;;;;;;5088255;28;20496;-65
2022/09/22 06:40:31;;;;;;;18.77;9.60;;;;;;;;;;5066140;28;20050;-65
2022/09/22 06:42:58;;;;;;;13.60;9.70;;;;;;;;;;5082426;28;20059;-65
2022/09/22 06:45:30;;;;;;;15.10;9.75;;;;;;;;;;5074189;28;20087;-65
2022/09/22 06:47:57;;;;;;;15.02;9.60;;;;;;;;;;5090009;28;20484;-66
2022/09/22 06:50:23;;;;;;;13.48;9.82;;;;;;;;;;5093536;28;20044;-66
2022/09/22 06:52:50;;;;;;;13.32;8.90;;;;;;;;;;5094180;28;20579;-65
2022/09/22 06:55:19;;;;;;;13.43;9.68;;;;;;;;;;5094280;28;20458;-65
2022/09/22 06:57:45;;;;;;;13.35;8.80;;;;;;;;;;5092167;28;20573;-66
2022/09/22 07:00:13;;;;;;;12.73;7.75;;;;;;;;;;5094830;28;20052;-66
2022/09/22 07:02:39;;;;;;;10.88;7.35;;;;;;;;;;5092432;28;20058;-66
2022/09/22 07:05:05;;;;;;;15.95;8.27;;;;;;;;;;5093771;28;20040;-65
2022/09/22 07:07:31;;;;;;;15.63;8.75;;;;;;;;;;5092600;28;20059;-65
2022/09/22 07:09:57;;;;;;;11.65;7.35;;;;;;;;;;5092248;28;20036;-66
2022/09/22 07:12:24;;;;;;;10.27;7.57;;;;;;;;;;5094691;28;20039;-66
2022/09/22 07:14:51;;;;;;;11.65;8.05;;;;;;;;;;5081434;28;20059;-66
2022/09/22 07:17:19;;;;;;;10.63;6.70;;;;;;;;;;5094910;28;20055;-66
2022/09/22 07:19:46;;;;;;;11.30;6.90;;;;;;;;;;5094154;28;20044;-66
2022/09/22 07:22:13;;;;;;;9.57;6.57;;;;;;;;;;5089853;28;20404;-66
2022/09/22 07:24:39;;;;;;;10.43;6.75;;;;;;;;;;5083619;28;20109;-66
2022/09/22 07:27:05;;;;;;;10.65;6.55;;;;;;;;;;5074465;28;20048;-66
2022/09/22 07:29:32;;;;;;;10.30;5.82;;;;;;;;;;5088570;28;20051;-66
2022/09/22 07:31:58;;;;;;;10.38;5.57;;;;;;;;;;5085912;28;20055;-66
2022/09/22 07:34:27;;;;;;;11.43;6.47;;;;;;;;;;5093302;28;20479;-66
2022/09/22 07:36:53;;;;;;;10.32;6.00;;;;;;;;;;5094061;28;20071;-67
2022/09/22 07:39:19;;;;;;;9.80;4.88;;;;;;;;;;5092543;28;20127;-66
2022/09/22 07:41:46;;;;;;;11.07;5.63;;;;;;;;;;5092376;28;20054;-66
2022/09/22 07:46:59;;;;;;;10.52;5.45;;;;;;;;;;5093285;28;20051;-67
2022/09/22 07:49:25;;;;;;;8.15;4.88;;;;;;;;;;5092556;28;20044;-67
2022/09/22 07:51:56;;;;;;;8.73;5.25;;;;;;;;;;5090925;28;20552;-67
2022/09/22 07:54:22;;;;;;;11.02;5.18;;;;;;;;;;5090529;28;20540;-67
2022/09/22 07:56:55;;;;;;;8.07;4.85;;;;;;;;;;5070363;28;20103;-67
2022/09/22 07:59:21;;;;;;;7.68;4.47;;;;;;;;;;5080636;28;20080;-67
2022/09/22 08:01:49;;;;;;;6.85;4.00;;;;;;;;;;5073590;28;20067;-67
2022/09/22 08:04:21;;;;;;;7.72;4.22;;;;;;;;;;5091909;28;21741;-67
2022/09/22 08:06:48;;;;;;;6.70;3.72;;;;;;;;;;5084975;28;20067;-67
2022/09/22 08:09:14;;;;;;;10.75;3.80;;;;;;;;;;5074417;28;20050;-67
2022/09/22 08:11:44;;;;;;;8.48;3.72;;;;;;;;;;5075331;28;20415;-67
2022/09/22 08:14:11;;;;;;;8.38;3.50;;;;;;;;;;5092766;28;20388;-67
2022/09/22 08:16:38;;;;;;;11.25;3.70;;;;;;;;;;5093448;28;20093;-67
2022/09/22 08:19:11;;;;;;;11.85;3.58;;;;;;;;;;5092035;28;20086;-67
2022/09/22 08:21:38;;;;;;;8.93;3.88;;;;;;;;;;5092086;28;20074;-67
2022/09/22 08:24:27;;;;;;;7.57;3.75;;;14.50;99.90;;;;;;5099326;22;20048;-67
2022/09/22 08:26:54;;;;;;;5.18;3.42;;;;;;;;;;5034804;22;20139;-68
2022/09/22 08:29:21;;;;;;;7.80;3.60;;;;;;;;;;5072191;28;20053;-67
2022/09/22 08:31:48;;;;;;;10.68;2.80;;;;;;;;;;5054264;28;20265;-68
2022/09/22 08:34:15;;;;;;;22.55;3.45;;;;;;;;;;5055573;28;20119;-70
2022/09/22 08:36:45;;;;;;;10.85;4.43;;;;;;;;;;5038160;28;20535;-71
2022/09/22 08:39:11;;;;;;;7.55;3.42;;;;;;;;;;5059587;28;20094;-71
2022/09/22 08:41:40;;;;;;;7.07;3.20;;;;;;;;;;5055382;28;20048;-70
2022/09/22 08:44:08;;;;;;;9.65;3.70;;;;;;;;;;5107538;22;20052;-71
2022/09/22 08:46:42;;;;;;;6.60;2.83;;;;;;;;;;5098967;22;20083;-71
2022/09/22 08:52:15;;;;;;;7.82;4.00;;;;;;;;;;5052081;28;20049;-72
2022/09/22 08:54:43;;;;;;;8.98;3.00;;;15.80;99.90;;;;;;5072421;28;20053;-71
2022/09/22 08:57:28;;;;;;;5.38;3.00;;;;;;;;;;5041929;28;20156;-71
2022/09/22 09:00:06;;;;;;;5.97;2.60;;;16.20;99.90;;;;;;5028157;28;20048;-71
2022/09/22 09:02:40;;;;;;;10.40;3.25;;;;;;;;;;5035058;28;20040;-71
2022/09/22 09:05:06;;;;;;;7.82;3.00;;;;;;;;;;5035894;28;20044;-68
2022/09/22 09:08:05;;;;;;;6.57;3.35;;;16.20;99.90;;;;;;5047690;28;20064;-68
2022/09/22 09:10:52;;;;;;;4.80;2.60;;;16.00;99.90;;;;;;5045767;28;20045;-69
2022/09/22 09:13:21;;;;;;;6.00;2.97;;;;;;;;;;5019264;28;20292;-69
2022/09/22 09:15:53;;;;;;;7.28;3.13;;;16.00;99.90;;;;;;5031469;28;20047;-69
2022/09/22 09:18:23;;;;;;;27.08;3.40;;;;;;;;;;5054149;28;20040;-73
2022/09/22 09:20:51;;;;;;;20.58;4.57;;;16.20;99.90;;;;;;5024041;28;20091;-73
2022/09/22 09:23:29;;;;;;;6.25;3.30;;;16.20;99.90;;;;;;5027013;28;20113;-72
2022/09/22 09:25:56;;;;;;;30.15;4.47;;;;;;;;;;5036056;28;20052;-72
2022/09/22 09:28:32;;;;;;;14.30;3.67;;;16.50;99.90;;;;;;5033962;28;20041;-71
2022/09/22 09:31:09;;;;;;;4.13;2.78;;;16.70;99.90;;;;;;5052653;28;20087;-73
2022/09/22 09:33:59;;;;;;;7.82;3.20;;;16.60;99.90;;;;;;5037715;28;20446;-70
2022/09/22 09:36:30;;;;;;;10.43;2.65;;;;;;;;;;5043519;28;20044;-71
2022/09/22 09:38:57;;;;;;;3.63;2.33;;;;;;;;;;5056575;28;20045;-71
2022/09/22 09:41:30;;;;;;;7.65;2.63;;;;;;;;;;5052326;28;20123;-73
2022/09/22 09:43:56;;;;;;;8.35;3.10;;;;;;;;;;5045337;28;20037;-72
2022/09/22 09:46:28;;;;;;;28.88;3.80;;;17.60;99.90;;;;;;5034703;28;20041;-72
2022/09/22 09:49:06;;;;;;;32.63;4.28;;;17.50;99.90;;;;;;5045457;28;20127;-72
2022/09/22 09:51:36;;;;;;;38.25;4.65;;;;;;;;;;5036028;28;20040;-72
2022/09/22 09:54:05;;;;;;;6.68;2.55;;;17.60;99.90;;;;;;5036526;28;20040;-71
2022/09/22 09:56:32;;;;;;;5.38;2.50;;;17.60;99.90;;;;;;5050867;28;20128;-71
2022/09/22 10:01:47;;;;;;;6.18;2.30;;;17.50;99.90;;;;;;5060597;28;20062;-73
2022/09/22 10:04:19;;;;;;;6.07;2.00;;;18.20;99.90;;;;;;5033649;28;20041;-76
2022/09/22 10:06:46;;;;;;;4.65;2.47;;;17.80;99.90;;;;;;5050758;28;20045;-73
2022/09/22 10:09:26;;;;;;;5.88;2.38;;;18.20;99.90;;;;;;5038267;28;20557;-71
2022/09/22 10:11:59;;;;;;;;;;;18.10;99.90;;;;;;5031135;28;20059;-68
2022/09/22 10:14:27;;;;;;;8.38;2.85;;;;;;;;;;5051518;28;19947;-70
2022/09/22 10:16:53;;;;;;;6.97;2.78;;;;;;;;;;5038858;28;20040;-68
2022/09/22 10:19:25;;;;;;;6.80;3.05;;;18.30;99.90;;;;;;5054797;28;20052;-64
2022/09/22 10:21:51;;;;;;;8.95;3.50;;;18.30;99.90;;;;;;5038715;28;20041;-64
2022/09/22 10:24:36;;;;;;;6.20;3.45;;;;;;;;;;5055429;28;20040;-69
2022/09/22 10:27:02;;;;;;;6.88;2.92;;;;;;;;;;5032006;28;20041;-65
2022/09/22 10:29:28;;;;;;;9.45;3.38;;;18.20;99.90;;;;;;5042703;28;20045;-67
2022/09/22 10:32:06;;;;;;;6.22;3.10;;;;;;;;;;5051511;28;20098;-68
2022/09/22 10:34:39;;;;;;;9.43;2.75;;;18.20;99.90;;;;;;5020976;28;20080;-66
2022/09/22 10:37:10;;;;;;;9.85;4.57;;;18.60;99.90;;;;;;5035823;28;20037;-72
2022/09/22 10:39:51;;;;;;;7.20;2.67;;;18.40;99.90;;;;;;5037285;28;20166;-70
2022/09/22 10:42:35;;;;;;;8.63;2.83;;;;;;;;;;5021925;28;20091;-69
2022/09/22 10:45:09;;;;;;;6.18;3.10;;;18.60;99.90;;;;;;5054479;28;20191;-75
2022/09/22 10:47:57;;;;;;;4.57;2.88;;;18.40;99.90;;;;;;5077823;28;20088;-69
2022/09/22 10:50:27;;;;;;;6.47;3.20;;;18.70;99.90;;;;;;5055385;28;20061;-67
2022/09/22 10:53:16;;;;;;;6.53;2.80;;;;;;;;;;5051083;28;20041;-69
2022/09/22 10:55:53;;;;;;;6.03;2.70;;;18.80;99.90;;;;;;5052229;28;20041;-72
2022/09/22 10:58:26;;;;;;;6.72;2.75;;;;;;;;;;5050954;28;20034;-61
2022/09/22 11:01:00;;;;;;;5.50;2.70;;;;;;;;;;5052645;28;20049;-62
2022/09/22 11:03:43;;;;;;;6.93;3.70;;;18.70;99.90;;;;;;5057487;28;20098;-61
2022/09/22 11:12:18;;;;;;;9.40;3.42;;;;;;;;;;5048584;28;20053;-61
2022/09/22 11:15:02;;;;;;;7.30;3.53;;;19.10;99.90;;;;;;5062387;28;20099;-64
2022/09/22 11:17:50;;;;;;;10.82;3.92;;;;;;;;;;5043990;28;20049;-74
2022/09/22 11:20:47;;;;;;;7.80;4.03;;;18.70;99.90;;;;;;5084736;28;20044;-78
2022/09/22 11:23:39;;;;;;;17.77;4.25;;;18.50;99.90;;;;;;5034304;28;20050;-76
2022/09/22 11:26:15;;;;;;;9.77;3.38;;;;;;;;;;5048255;28;20037;-73
2022/09/22 11:28:49;;;;;;;9.75;3.47;;;;;;;;;;5042067;28;20136;-73
2022/09/22 11:31:27;;;;;;;7.22;4.43;;;;;;;;;;5046610;28;20076;-72
2022/09/22 11:34:11;;;;;;;8.85;4.05;;;19.40;99.90;;;;;;5031091;28;20482;-74
2022/09/22 11:36:53;;;;;;;9.80;3.97;;;;;;;;;;5045989;28;20143;-73
2022/09/22 11:39:19;;;;;;;10.85;3.90;;;19.60;99.90;;;;;;5054514;28;20130;-71
2022/09/22 11:41:48;;;;;;;6.85;3.78;;;;;;;;;;5070270;28;20046;-71
2022/09/22 11:44:27;;;;;;;9.68;3.33;;;;;;;;;;5053654;28;20397;-71
2022/09/22 11:46:56;;;;;;;7.17;2.90;;;19.80;99.90;;;;;;5052545;28;20520;-67
2022/09/22 11:49:24;;;;;;;11.48;3.65;;;19.80;99.90;;;;;;5053681;28;20064;-71
2022/09/22 11:52:07;;;;;;;8.38;3.58;;;19.90;99.90;;;;;;5052953;28;20053;-71
2022/09/22 11:54:55;;;;;;;8.20;3.58;;;19.60;99.90;;;;;;5049835;28;20044;-74
2022/09/22 11:57:26;;;;;;;6.22;3.70;;;19.70;99.90;;;;;;5034830;28;20573;-71
2022/09/22 11:59:52;;;;;;;6.93;3.58;;;;;;;;;;5035976;28;20124;-72
2022/09/22 12:02:24;;;;;;;7.38;3.50;;;;;;;;;;5054430;28;20193;-72
2022/09/22 12:04:54;;;;;;;8.55;3.50;;;;;;;;;;5032412;28;20111;-72
2022/09/22 12:07:25;;;;;;;6.30;3.65;;;;;;;;;;5058828;28;20111;-71
2022/09/22 12:09:55;;;;;;;8.48;3.67;;;;;;;;;;5018501;28;20047;-72
2022/09/22 12:12:23;;;;;;;76.18;9.80;;;;;;;;;;5045130;28;20037;-73
2022/09/22 12:15:01;;;;;;;6.25;3.08;;;19.60;99.90;;;;;;5051893;28;20129;-74
2022/09/22 12:17:45;;;;;;;7.82;2.80;;;19.80;99.90;;;;;;5034620;28;20043;-73
2022/09/22 12:20:14;;;;;;;7.30;2.20;;;;;;;;;;5041619;28;20498;-73
2022/09/22 12:22:58;;;;;;;7.30;2.80;;;19.80;99.90;;;;;;5049026;28;20092;-68
2022/09/22 12:25:54;;;;;;;6.97;2.60;;;19.60;99.90;;;;;;5064409;28;20041;-66
2022/09/22 12:28:25;;;;;;;7.15;2.90;;;19.60;99.90;;;;;;5071943;28;20562;-72
2022/09/22 12:31:04;;;;;;;7.30;2.88;;;19.80;99.90;;;;;;5048894;28;20130;-72
2022/09/22 12:33:32;;;;;;;7.40;2.93;;;19.80;99.90;;;;;;5041606;28;20057;-72
2022/09/22 12:35:59;;;;;;;4.78;2.05;;;19.70;99.90;;;;;;5033651;28;20046;-72
2022/09/22 12:38:29;;;;;;;6.93;2.42;;;;;;;;;;5033277;28;20438;-71
2022/09/22 12:40:58;;;;;;;5.60;2.38;;;;;;;;;;5002990;22;20064;-71
2022/09/22 12:43:26;;;;;;;6.90;2.30;;;;;;;;;;5046306;28;20048;-72
2022/09/22 12:45:53;;;;;;;6.32;2.40;;;;;;;;;;5054828;28;20298;-72
2022/09/22 12:48:24;;;;;;;6.07;2.20;;;;;;;;;;5055559;28;20040;-71
2022/09/22 12:50:51;;;;;;;6.30;2.30;;;19.50;99.90;;;;;;5072931;28;20048;-70
2022/09/22 12:53:29;;;;;;;5.30;2.05;;;;;;;;;;5039039;28;20051;-70
2022/09/22 12:55:56;;;;;;;6.70;2.70;;;;;;;;;;5055280;28;20446;-70
2022/09/22 12:58:22;;;;;;;9.10;3.22;;;;;;;;;;5051225;22;20378;-70
2022/09/22 13:00:49;;;;;;;4.80;2.30;;;;;;;;;;4917819;22;20127;-71
2022/09/22 13:03:24;;;;;;;7.75;2.38;;;19.80;99.90;;;;;;5095821;28;20058;-70
2022/09/22 13:05:54;;;;;;;6.10;2.20;;;;;;;;;;5095839;28;20127;-70
2022/09/22 13:08:24;;;;;;;;;;;20.20;99.90;;;;;;5099702;28;20040;-70
2022/09/22 13:10:58;;;;;;;5.25;2.15;;;;;;;;;;5074299;28;19937;-71
2022/09/22 13:13:35;;;;;;;4.70;2.15;;;;;;;;;;5092208;28;20044;-70
2022/09/22 13:16:21;;;;;;;6.63;2.20;;;20.20;99.90;;;;;;5071043;28;20047;-70
2022/09/22 13:18:50;;;;;;;6.32;2.35;;;;;;;;;;5050049;28;20063;-69
2022/09/22 13:21:17;;;;;;;11.80;2.53;;;19.80;99.90;;;;;;5074175;28;20114;-69
2022/09/22 13:23:53;;;;;;;10.38;2.95;;;;;;;;;;5056018;28;20058;-68
2022/09/22 13:26:31;;;;;;;7.93;1.98;;;19.40;99.90;;;;;;5075349;28;20506;-70
2022/09/22 13:29:00;;;;;;;6.38;2.47;;;;;;;;;;5092127;28;20036;-62
2022/09/22 13:31:26;;;;;;;6.15;1.85;;;;;;;;;;5074111;28;20052;-66
2022/09/22 13:33:52;;;;;;;6.28;2.20;;;;;;;;;;5070883;28;20079;-62
2022/09/22 13:36:19;;;;;;;5.43;1.73;;;;;;;;;;5073400;28;20151;-63
2022/09/22 13:38:49;;;;;;;4.43;1.80;;;;;;;;;;5071482;28;20403;-61
2022/09/22 13:41:23;;;;;;;6.60;1.95;;;;;;;;;;5091128;28;20396;-61
2022/09/22 13:44:01;;;;;;;5.82;1.90;;;;;;;;;;5092199;28;20043;-63
2022/09/22 13:46:39;;;;;;;6.80;2.00;;;;;;;;;;5092376;28;20036;-64
2022/09/22 13:49:08;;;;;;;5.20;2.30;;;;;;;;;;5074394;28;20040;-64
2022/09/22 13:51:34;;;;;;;4.55;2.10;;;;;;;;;;5092418;28;20044;-64
2022/09/22 13:54:01;;;;;;;5.65;1.75;;;;;;;;;;5091547;28;20039;-64
2022/09/22 13:56:27;;;;;;;8.90;2.20;;;;;;;;;;5091547;28;20097;-65
2022/09/22 13:58:55;;;;;;;4.32;2.00;;;;;;;;;;5092222;28;20066;-60
2022/09/22 14:01:24;;;;;;;5.70;2.00;;;18.80;99.90;;;;;;5074284;28;20048;-60
2022/09/22 14:03:51;;;;;;;5.07;2.22;;;;;;;;;;5045343;28;20069;-58
2022/09/22 14:06:17;;;;;;;7.78;2.00;;;;;;;;;;5055075;28;20052;-59
2022/09/22 14:08:43;;;;;;;6.22;2.00;;;;;;;;;;5090322;28;20089;-58
2022/09/22 14:11:18;;;;;;;6.57;1.95;;;;;;;;;;5039768;28;20049;-59
2022/09/22 14:13:53;;;;;;;4.80;1.90;;;19.30;99.90;;;;;;5036238;28;20278;-61
2022/09/22 14:16:22;;;;;;;4.80;1.90;;;19.20;99.90;;;;;;5061811;28;20048;-60
2022/09/22 14:18:53;;;;;;;4.50;1.60;;;;;;;;;;5054023;28;20098;-59
2022/09/22 14:21:20;;;;;;;2.78;1.67;;;;;;;;;;5062283;28;20036;-61
2022/09/22 14:23:48;;;;;;;3.92;1.50;;;;;;;;;;5057477;28;20127;-61
2022/09/22 14:26:32;;;;;;;6.95;1.70;;;19.30;99.90;;;;;;5053047;28;20040;-59
2022/09/22 14:29:13;;;;;;;5.55;1.90;;;19.50;99.90;;;;;;5032221;28;20055;-61
2022/09/22 14:31:40;;;;;;;3.95;1.95;;;;;;;;;;5064696;28;20094;-65
2022/09/22 14:34:08;;;;;;;4.97;2.10;;;19.10;99.90;;;;;;5054005;28;20044;-65
2022/09/22 14:36:38;;;;;;;5.40;2.00;;;;;;;;;;5038276;28;20051;-66
2022/09/22 14:39:04;;;;;;;6.47;2.15;;;;;;;;;;5038919;28;20041;-66
2022/09/22 14:41:39;;;;;;;5.00;1.73;;;18.90;99.90;;;;;;5047059;28;20045;-66
2022/09/22 14:44:41;;;;;;;4.65;1.85;;;;;;;;;;5069891;28;20117;-65
2022/09/22 14:47:28;;;;;;;4.55;2.00;;;18.70;99.90;;;;;;5029534;28;20077;-65